Time;durP1;ratioP1;P1;durP2;ratioP2;P2;SDS_P1;SDS_P2;PMS_P1;PMS_P2;Temp;Humidity;BMP_temperature;BMP_pressure;BME280_temperature;BME280_humidity;BME280_pressure;Samples;Min_cycle;Max_cycle;Signal;HPM_P1;HPM_P2
2022/05/28 00:01:52;;;;;;;3.35;1.42;;;;;;;15.90;63.27;98999.02;1725666;82;20994;-63
2022/05/28 00:04:19;;;;;;;2.20;1.40;;;;;;;15.92;63.22;99002.89;1733484;82;21601;-63
2022/05/28 00:06:46;;;;;;;1.75;1.17;;;;;;;15.89;63.30;99006.59;1729511;82;21891;-63
2022/05/28 00:09:14;;;;;;;3.65;1.45;;;;;;;15.70;63.73;99020.83;1736487;82;21013;-63
2022/05/28 00:11:42;;;;;;;2.65;1.25;;;;;;;15.74;64.02;99019.18;1733319;82;21569;-63
2022/05/28 00:14:10;;;;;;;1.45;1.20;;;;;;;15.66;64.36;99010.93;1709616;82;21672;-63
2022/05/28 00:16:38;;;;;;;1.22;1.10;;;;;;;15.72;64.20;98993.73;1735958;82;21462;-63
2022/05/28 00:19:06;;;;;;;1.40;1.30;;;;;;;15.73;64.04;98991.46;1727318;82;26937;-63
2022/05/28 00:21:32;;;;;;;3.37;1.13;;;;;;;15.79;64.54;98978.27;1733674;82;21753;-63
2022/05/28 00:24:00;;;;;;;1.62;1.20;;;;;;;15.81;64.30;98966.58;1697332;84;28847;-62
2022/05/28 00:26:27;;;;;;;3.55;1.37;;;;;;;15.82;64.05;98944.39;1735689;82;21467;-62
2022/05/28 00:28:54;;;;;;;;;;;;;;;15.82;63.91;98928.98;1737389;82;21454;-63
2022/05/28 00:31:20;;;;;;;2.02;1.17;;;;;;;15.78;63.93;98953.54;1726169;82;20805;-63
2022/05/28 00:33:49;;;;;;;;;;;;;;;15.68;64.09;98976.38;1732171;82;21479;-63
2022/05/28 00:36:15;;;;;;;1.37;1.07;;;;;;;15.70;64.62;98973.13;1735792;82;20419;-62
2022/05/28 00:38:43;;;;;;;2.43;1.33;;;;;;;15.72;64.31;98956.63;1697281;84;21598;-62
2022/05/28 00:41:10;;;;;;;2.47;1.30;;;;;;;15.72;64.31;98956.63;1734517;81;22292;-63
2022/05/28 00:43:39;;;;;;;2.22;1.20;;;;;;;15.76;64.40;98973.56;1740656;81;22167;-63
2022/05/28 00:46:08;;;;;;;1.32;0.98;;;;;;;15.77;64.25;98961.14;1739732;81;21436;-63
2022/05/28 00:48:40;;;;;;;1.65;1.52;;;;;;;15.75;64.30;98975.83;1725483;82;20987;-63
2022/05/28 00:51:15;;;;;;;1.30;1.20;;;;;;;15.77;64.27;98967.77;1736539;81;21451;-63
2022/05/28 00:53:42;;;;;;;4.42;1.37;;;;;;;15.72;63.94;98978.66;1702078;83;21503;-63
2022/05/28 00:56:09;;;;;;;1.57;1.00;;;;;;;15.55;64.33;98967.16;1735793;80;21768;-63
2022/05/28 00:58:37;;;;;;;4.90;1.17;;;;;;;15.54;64.56;98963.67;1722331;82;21499;-64
2022/05/28 01:01:05;;;;;;;1.25;1.15;;;;;;;15.57;64.74;98961.27;1740904;81;20959;-64
2022/05/28 01:04:08;;;;;;;1.90;1.05;;;;;;;15.60;64.54;98978.76;1740047;81;21003;-64
2022/05/28 01:07:17;;;;;;;1.62;1.20;;;;;;;15.48;64.86;98967.23;1724603;82;21459;-64
2022/05/28 01:10:06;;;;;;;1.95;1.10;;;;;;;15.55;64.67;98969.81;1709262;81;21835;-64
2022/05/28 01:13:00;;;;;;;1.52;1.32;;;;;;;15.64;64.41;98987.67;1724750;81;21616;-65
2022/05/28 01:15:32;;;;;;;2.67;1.30;;;;;;;15.53;64.49;98986.30;1725493;82;20951;-64
2022/05/28 01:18:20;;;;;;;1.75;1.57;;;;;;;15.36;65.26;98998.13;1702368;83;21590;-64
2022/05/28 01:20:50;;;;;;;5.20;1.20;;;;;;;15.34;65.22;98985.48;1740606;81;21537;-64
2022/05/28 01:23:48;;;;;;;1.30;1.20;;;;;;;15.38;65.21;98993.56;1731421;81;21530;-64
2022/05/28 01:26:57;;;;;;;2.35;1.45;;;;;;;15.47;65.00;98992.90;1705475;83;21538;-65
2022/05/28 01:29:28;;;;;;;1.40;1.15;;;;;;;15.38;65.29;98989.59;1741586;81;21474;-62
2022/05/28 01:31:56;;;;;;;1.30;1.20;;;;;;;15.48;64.78;98983.14;1739048;81;21001;-63
2022/05/28 01:34:23;;;;;;;1.45;1.25;;;;;;;15.42;64.94;98976.48;1694890;83;21406;-62
2022/05/28 01:36:49;;;;;;;2.90;1.40;;;;;;;15.49;64.71;98966.30;1741990;81;21486;-62
2022/05/28 01:39:17;;;;;;;2.35;1.30;;;;;;;15.51;64.58;98966.54;1740482;81;21407;-61
2022/05/28 01:41:44;;;;;;;3.42;1.60;;;;;;;15.53;64.35;98959.80;1740708;81;21486;-62
2022/05/28 01:44:12;;;;;;;2.27;1.37;;;;;;;15.44;64.55;98970.59;1740234;81;21573;-62
2022/05/28 01:46:39;;;;;;;3.27;1.30;;;;;;;15.44;64.54;98994.44;1735193;80;26818;-61
2022/05/28 01:49:11;;;;;;;4.65;1.35;;;;;;;15.42;64.79;99002.97;1724460;82;21480;-63
2022/05/28 01:51:44;;;;;;;1.77;1.40;;;;;;;15.43;64.71;98992.77;1738130;81;21065;-62
2022/05/28 01:54:14;;;;;;;1.45;1.32;;;;;;;15.42;64.76;98989.73;1741532;81;21044;-62
2022/05/28 01:56:44;;;;;;;3.15;1.17;;;;;;;15.44;64.87;98977.70;1718258;82;21526;-63
2022/05/28 01:59:12;;;;;;;2.50;1.42;;;;;;;15.48;64.47;98990.62;1740766;81;21621;-62
2022/05/28 02:01:39;;;;;;;1.30;1.20;;;;;;;15.49;64.56;98988.81;1725696;82;21792;-63
2022/05/28 02:04:05;;;;;;;1.22;1.12;;;;;;;15.54;64.38;98961.02;1701494;83;21502;-63
2022/05/28 02:06:34;;;;;;;;;;;;;;;15.47;64.25;98940.41;1705401;83;21617;-62
2022/05/28 02:09:00;;;;;;;2.17;1.17;;;;;;;15.40;64.83;98957.70;1721356;82;20432;-62
2022/05/28 02:11:31;;;;;;;1.43;1.33;;;;;;;15.43;64.85;98937.13;1707574;82;21010;-62
2022/05/28 02:14:16;;;;;;;1.40;1.30;;;;;;;15.47;64.62;98953.16;1703861;83;21811;-62
2022/05/28 02:17:05;;;;;;;1.75;1.30;;;;;;;15.44;64.48;98966.63;1717722;81;21403;-61
2022/05/28 02:19:44;;;;;;;;;;;;;;;15.42;64.65;98976.48;1744130;81;21447;-62
2022/05/28 02:22:45;;;;;;;4.03;1.40;;;;;;;15.39;64.71;98970.11;1741612;81;20321;-62
2022/05/28 02:25:19;;;;;;;1.27;1.27;;;;;;;15.34;64.91;98972.23;1724543;82;21525;-63
2022/05/28 02:27:47;;;;;;;1.35;1.25;;;;;;;15.37;65.21;98974.19;1725724;81;21872;-63
2022/05/28 02:30:14;;;;;;;4.25;1.42;;;;;;;15.27;65.23;98981.59;1725852;82;21515;-62
2022/05/28 02:32:41;;;;;;;2.30;1.40;;;;;;;15.41;65.13;98988.05;1740557;81;21478;-63
2022/05/28 02:35:09;;;;;;;1.47;1.37;;;;;;;15.48;64.96;98993.73;1741266;81;21426;-64
2022/05/28 02:37:36;;;;;;;1.50;1.40;;;;;;;15.52;64.82;98989.44;1740159;81;20949;-63
2022/05/28 02:40:05;;;;;;;1.75;1.60;;;;;;;15.53;64.73;98996.41;1738375;81;21870;-63
2022/05/28 02:42:53;;;;;;;1.82;1.50;;;;;;;15.69;64.39;98988.65;1724850;82;21401;-63
2022/05/28 02:45:19;;;;;;;2.83;1.40;;;;;;;15.71;64.44;98984.11;1676215;84;21569;-62
2022/05/28 02:47:46;;;;;;;1.50;1.40;;;;;;;15.68;64.31;98985.65;1674510;85;21466;-63
2022/05/28 02:50:15;;;;;;;1.70;1.52;;;;;;;15.67;64.42;98982.16;1683018;83;21045;-63
2022/05/28 02:52:43;;;;;;;2.50;1.40;;;;;;;15.64;64.30;98982.87;1678147;83;21422;-63
2022/05/28 02:55:10;;;;;;;1.67;1.42;;;;;;;15.69;64.14;98985.54;1682874;83;21554;-63
2022/05/28 02:57:37;;;;;;;1.60;1.50;;;;;;;15.64;64.10;98983.70;1680231;83;21494;-63
2022/05/28 03:00:06;;;;;;;1.77;1.52;;;;;;;15.70;64.33;98986.38;1682615;83;21537;-64
2022/05/28 03:02:34;;;;;;;5.62;1.20;;;;;;;15.72;64.27;98984.45;1683418;84;21528;-62
2022/05/28 03:05:01;;;;;;;1.57;1.40;;;;;;;15.75;64.02;98984.27;1683331;83;21414;-63
2022/05/28 03:07:27;;;;;;;5.78;1.82;;;;;;;15.86;63.65;98991.39;1676637;84;21083;-62
2022/05/28 03:09:55;;;;;;;2.92;1.50;;;;;;;15.80;63.73;98991.38;1683468;83;21541;-62
2022/05/28 03:12:21;;;;;;;2.40;1.50;;;;;;;15.89;63.70;98999.12;1683221;84;21426;-63
2022/05/28 03:14:50;;;;;;;3.35;2.08;;;;;;;15.87;63.53;98999.23;1666085;83;21510;-61
2022/05/28 03:17:16;;;;;;;3.90;1.67;;;;;;;15.86;63.70;99005.52;1681876;83;21881;-62
2022/05/28 03:19:44;;;;;;;2.92;1.77;;;;;;;15.77;64.12;99002.23;1684931;83;21592;-61
2022/05/28 03:22:10;;;;;;;1.70;1.60;;;;;;;15.81;63.70;99020.08;1658695;84;21668;-61
2022/05/28 03:24:37;;;;;;;3.30;1.80;;;;;;;15.82;63.69;99024.40;1652139;84;21467;-63
2022/05/28 03:27:05;;;;;;;3.58;1.70;;;;;;;15.90;63.67;99030.83;1652410;84;21439;-62
2022/05/28 03:29:32;;;;;;;2.17;1.60;;;;;;;16.01;63.63;99028.72;1624174;86;21861;-61
2022/05/28 03:31:59;;;;;;;2.30;1.72;;;;;;;15.98;63.50;99026.28;1679864;83;21541;-61
2022/05/28 03:34:25;;;;;;;2.95;1.67;;;;;;;16.02;63.20;99025.58;1672329;83;21620;-61
2022/05/28 03:36:52;;;;;;;2.70;1.82;;;;;;;16.07;62.95;99018.96;1675729;83;21426;-62
2022/05/28 03:39:19;;;;;;;3.02;1.98;;;;;;;16.06;62.96;99008.47;1675045;83;20945;-61
2022/05/28 03:41:45;;;;;;;2.12;1.92;;;;;;;16.05;63.02;99019.56;1676326;84;21876;-61
2022/05/28 03:44:12;;;;;;;5.50;1.60;;;;;;;15.99;62.96;99019.16;1676181;83;21064;-61
2022/05/28 03:46:40;;;;;;;4.28;1.55;;;;;;;15.92;63.02;99012.17;1683553;83;21458;-61
2022/05/28 03:49:23;;;;;;;4.20;2.33;;;;;;;16.00;62.98;99023.03;1683880;83;21429;-63
2022/05/28 03:51:49;;;;;;;5.03;2.30;;;;;;;16.09;62.89;99028.13;1682919;83;21435;-63
2022/05/28 03:54:16;;;;;;;4.58;1.87;;;;;;;16.05;62.94;99019.56;1670167;84;21807;-62
2022/05/28 03:56:43;;;;;;;1.82;1.72;;;;;;;16.02;62.87;99025.58;1675601;83;22123;-61
2022/05/28 03:59:11;;;;;;;1.77;1.65;;;;;;;16.13;62.71;99021.14;1679463;83;21527;-62
2022/05/28 04:01:38;;;;;;;2.15;1.80;;;;;;;16.15;62.46;99023.20;1675280;84;21447;-62
2022/05/28 04:04:05;;;;;;;5.25;2.00;;;;;;;16.18;62.27;99040.70;1672638;84;21488;-62
2022/05/28 04:06:34;;;;;;;;;;;;;;;16.18;61.61;99027.44;1678709;84;21522;-62
2022/05/28 04:09:00;;;;;;;2.05;1.85;;;;;;;16.11;62.19;99020.91;1676067;84;20234;-62
2022/05/28 04:11:29;;;;;;;3.80;2.10;;;;;;;16.05;62.22;99028.84;1680299;83;21671;-62
2022/05/28 04:13:56;;;;;;;3.45;1.80;;;;;;;16.07;62.02;99024.75;1683882;83;21540;-62
2022/05/28 04:16:23;;;;;;;2.42;2.00;;;;;;;16.10;61.68;99012.57;1683188;83;21454;-62
2022/05/28 04:18:50;;;;;;;4.83;1.92;;;;;;;16.20;61.75;99024.19;1679762;83;22155;-63
2022/05/28 04:21:17;;;;;;;2.00;1.80;;;;;;;16.14;62.08;99033.45;1682088;83;21455;-62
2022/05/28 04:23:44;;;;;;;3.00;2.45;;;;;;;16.09;61.74;99027.64;1683454;83;21935;-62
2022/05/28 04:26:11;;;;;;;2.60;1.98;;;;;;;16.02;61.58;99025.08;1683997;83;21611;-60
2022/05/28 04:28:38;;;;;;;2.10;1.95;;;;;;;16.14;61.53;99029.94;1683878;83;20944;-60
2022/05/28 04:31:06;;;;;;;2.25;2.00;;;;;;;16.15;61.50;99035.62;1683327;83;21506;-59
2022/05/28 04:33:34;;;;;;;3.33;2.10;;;;;;;16.22;61.43;99037.30;1680298;83;21557;-58
2022/05/28 04:36:00;;;;;;;3.75;1.95;;;;;;;16.35;60.93;99042.91;1674351;83;21506;-58
2022/05/28 04:38:28;;;;;;;6.27;2.23;;;;;;;16.32;60.97;99043.63;1678356;83;21494;-59
2022/05/28 04:40:54;;;;;;;2.90;2.17;;;;;;;16.31;60.99;99044.57;1676222;84;22299;-59
2022/05/28 04:43:21;;;;;;;2.52;2.33;;;;;;;16.18;61.11;99046.00;1675880;85;21876;-58
2022/05/28 04:45:48;;;;;;;3.37;2.55;;;;;;;16.26;61.08;99038.80;1673738;84;21494;-58
2022/05/28 04:48:15;;;;;;;5.85;2.35;;;;;;;16.31;61.32;99037.94;1678467;83;21512;-59
2022/05/28 04:50:43;;;;;;;2.45;1.80;;;;;;;16.41;61.40;99046.06;1678730;83;21411;-58
2022/05/28 04:53:10;;;;;;;3.50;2.40;;;;;;;16.43;61.42;99044.97;1683600;83;21503;-58
2022/05/28 04:55:37;;;;;;;4.33;2.40;;;;;;;16.43;61.03;99047.63;1683668;83;21896;-59
2022/05/28 04:58:05;;;;;;;2.40;2.05;;;;;;;16.58;60.85;99049.59;1683555;83;25777;-58
2022/05/28 05:00:33;;;;;;;2.58;2.20;;;;;;;16.57;60.62;99051.86;1684275;83;21656;-59
2022/05/28 05:03:00;;;;;;;4.53;3.00;;;;;;;16.07;60.44;98979.19;1693199;83;21518;-58
2022/05/28 05:05:27;;;;;;;3.90;2.45;;;;;;;16.47;60.66;99061.02;1682101;83;21565;-60
2022/05/28 05:07:56;;;;;;;3.55;2.20;;;;;;;16.64;60.17;99067.69;1683097;83;21487;-60
2022/05/28 05:10:23;;;;;;;3.03;2.70;;;;;;;16.76;60.37;99055.27;1683948;83;20956;-59
2022/05/28 05:12:49;;;;;;;3.65;2.58;;;;;;;16.73;59.74;99051.54;1683667;83;21454;-62
2022/05/28 05:15:16;;;;;;;2.60;2.40;;;;;;;16.70;60.20;99057.08;1671046;84;21178;-61
2022/05/28 05:17:43;;;;;;;3.20;2.37;;;;;;;16.81;59.62;99048.28;1668723;84;21002;-63
2022/05/28 05:20:11;;;;;;;4.83;3.02;;;;;;;16.77;59.87;99050.83;1676279;84;21722;-60
2022/05/28 05:22:38;;;;;;;7.30;2.62;;;;;;;16.79;59.58;99051.55;1674642;83;21533;-57
2022/05/28 05:25:07;;;;;;;3.00;2.80;;;;;;;16.80;59.69;99043.92;1675643;85;21628;-56
2022/05/28 05:27:35;;;;;;;2.58;2.37;;;;;;;16.43;59.93;98984.44;1683323;83;21126;-56
2022/05/28 05:30:05;;;;;;;4.37;2.30;;;;;;;16.86;60.08;99048.81;1677213;83;21419;-56
2022/05/28 05:32:32;;;;;;;5.80;2.80;;;;;;;17.07;59.39;99047.60;1682236;83;21871;-59
2022/05/28 05:34:59;;;;;;;3.33;3.02;;;;;;;17.18;58.82;99052.03;1683235;83;21450;-55
2022/05/28 05:37:26;;;;;;;3.87;3.00;;;;;;;17.18;57.42;99046.72;1683408;84;21477;-55
2022/05/28 05:39:53;;;;;;;2.80;2.60;;;;;;;17.07;56.67;99056.41;1683348;84;21417;-56
2022/05/28 05:42:19;;;;;;;3.77;2.80;;;;;;;17.15;56.09;99051.81;1683016;83;21797;-56
2022/05/28 05:44:46;;;;;;;5.08;2.37;;;;;;;17.09;56.88;99059.78;1686524;83;22101;-57
2022/05/28 05:47:13;;;;;;;2.77;2.47;;;;;;;17.16;57.90;99060.16;1677941;83;21493;-56
2022/05/28 05:49:40;;;;;;;4.65;2.50;;;;;;;17.28;56.99;99053.84;1684011;83;21537;-56
2022/05/28 05:52:08;;;;;;;4.55;2.60;;;;;;;17.38;57.53;99068.56;1683677;83;21005;-56
2022/05/28 05:54:34;;;;;;;3.30;2.63;;;;;;;17.24;56.85;99071.50;1680738;83;21575;-56
2022/05/28 05:57:01;;;;;;;3.30;2.90;;;;;;;17.10;57.65;99078.75;1653558;84;21414;-56
2022/05/28 05:59:29;;;;;;;5.83;2.72;;;;;;;17.16;57.87;99072.11;1653110;83;21434;-56
2022/05/28 06:01:56;;;;;;;3.45;3.15;;;;;;;17.06;57.04;99071.13;1630240;86;21534;-56
2022/05/28 06:04:23;;;;;;;3.27;2.90;;;;;;;17.03;56.74;99071.39;1684873;83;21485;-55
2022/05/28 06:06:50;;;;;;;3.10;2.90;;;;;;;17.17;56.43;99057.01;1682305;82;21510;-56
2022/05/28 06:09:17;;;;;;;3.35;2.52;;;;;;;17.22;56.22;99062.31;1667014;83;21594;-56
2022/05/28 06:11:44;;;;;;;3.08;2.80;;;;;;;17.23;57.02;99065.81;1674947;84;21028;-61
2022/05/28 06:14:11;;;;;;;4.80;3.00;;;;;;;17.01;57.25;99066.19;1672892;84;21600;-60
2022/05/28 06:16:38;;;;;;;3.83;2.70;;;;;;;17.24;55.83;99071.50;1680799;83;21481;-59
2022/05/28 06:19:06;;;;;;;3.87;2.40;;;;;;;17.19;55.48;99066.53;1683291;83;21553;-61
2022/05/28 06:21:34;;;;;;;3.30;2.85;;;;;;;17.42;55.42;99074.02;1673930;85;21768;-59
2022/05/28 06:24:01;;;;;;;3.87;2.67;;;;;;;17.55;55.47;99071.19;1683600;83;21438;-60
2022/05/28 06:26:28;;;;;;;2.80;2.40;;;;;;;17.67;55.91;99070.70;1653418;84;21510;-59
2022/05/28 06:28:55;;;;;;;3.58;2.22;;;;;;;17.96;55.79;99066.17;1644581;84;21597;-60
2022/05/28 06:31:22;;;;;;;7.55;2.80;;;;;;;18.02;55.43;99072.30;1623943;86;21471;-61
2022/05/28 06:33:48;;;;;;;2.87;2.58;;;;;;;18.06;54.53;99068.41;1683670;83;21787;-62
2022/05/28 06:36:17;;;;;;;3.02;2.58;;;;;;;18.04;54.66;99072.52;1679019;83;21519;-61
2022/05/28 06:38:45;;;;;;;2.95;2.67;;;;;;;18.21;54.69;99070.28;1686513;83;21549;-60
2022/05/28 06:41:12;;;;;;;4.22;2.40;;;;;;;18.24;54.55;99065.55;1680915;83;21679;-61
2022/05/28 06:43:40;;;;;;;;;;;;;;;18.23;54.60;99072.33;1681993;83;21573;-60
2022/05/28 06:46:08;;;;;;;6.70;2.40;;;;;;;18.19;54.41;99070.90;1679594;83;21869;-61
2022/05/28 06:48:37;;;;;;;2.80;2.60;;;;;;;18.42;54.12;99074.28;1675185;83;21648;-61
2022/05/28 06:51:05;;;;;;;3.80;3.05;;;;;;;18.40;53.55;99065.59;1676880;83;21614;-62
2022/05/28 06:53:38;;;;;;;3.42;2.55;;;;;;;18.49;53.62;99078.12;1676319;83;21458;-61
2022/05/28 06:56:07;;;;;;;4.40;2.42;;;;;;;18.49;52.72;99072.30;1676735;83;21574;-61
2022/05/28 06:58:33;;;;;;;;;;;;;;;18.54;52.35;99076.41;1680998;83;21854;-61
2022/05/28 07:01:01;;;;;;;4.03;2.70;;;;;;;18.47;52.32;99079.57;1680579;83;20479;-62
2022/05/28 07:03:30;;;;;;;5.12;1.87;;;;;;;18.55;52.35;99074.92;1680022;83;21475;-61
2022/05/28 07:05:57;;;;;;;6.75;2.60;;;;;;;18.82;52.16;99084.25;1675196;83;21010;-62
2022/05/28 07:08:26;;;;;;;4.90;2.27;;;;;;;18.84;51.45;99072.48;1680197;83;21442;-64
2022/05/28 07:10:56;;;;;;;3.85;2.60;;;;;;;18.66;51.83;99073.52;1679643;83;21950;-60
2022/05/28 07:13:23;;;;;;;6.65;2.60;;;;;;;18.73;50.69;99075.69;1671169;83;20970;-61
2022/05/28 07:15:51;;;;;;;3.08;2.08;;;;;;;18.72;50.86;99076.65;1680236;83;21557;-61
2022/05/28 07:18:18;;;;;;;2.95;2.55;;;;;;;18.77;51.50;99074.45;1668662;83;21624;-61
2022/05/28 07:20:45;;;;;;;2.70;2.20;;;;;;;18.95;51.33;99079.55;1680257;83;21572;-60
2022/05/28 07:23:19;;;;;;;4.03;2.45;;;;;;;18.97;50.89;99065.61;1679782;83;22099;-60
2022/05/28 07:25:46;;;;;;;3.12;2.30;;;;;;;19.37;49.71;99075.43;1679691;83;21570;-61
2022/05/28 07:28:25;;;;;;;3.10;2.05;;;;;;;19.44;49.63;99073.91;1673710;83;21013;-62
2022/05/28 07:31:02;;;;;;;3.15;2.20;;;;;;;19.55;48.83;99072.97;1677227;83;21589;-62
2022/05/28 07:33:32;;;;;;;2.95;2.02;;;;;;;19.57;47.23;99075.47;1678201;83;21489;-61
2022/05/28 07:36:00;;;;;;;6.10;2.15;;;;;;;19.47;46.25;99073.28;1675375;83;21760;-61
2022/05/28 07:38:28;;;;;;;3.65;2.00;;;;;;;19.56;46.59;99064.47;1679368;83;21451;-61
2022/05/28 07:40:55;;;;;;;3.65;1.80;;;;;;;19.74;46.80;99058.86;1680373;83;21467;-61
2022/05/28 07:43:22;;;;;;;6.15;2.20;;;;;;;19.93;46.41;99061.16;1678445;83;21061;-61
2022/05/28 07:45:51;;;;;;;5.45;2.10;;;;;;;19.99;47.81;99061.96;1681858;83;21687;-61
2022/05/28 07:48:17;;;;;;;7.55;2.08;;;;;;;20.06;46.94;99067.09;1672619;84;21868;-59
2022/05/28 07:50:45;;;;;;;5.08;1.92;;;;;;;20.02;46.68;99059.86;1681737;83;20957;-61
2022/05/28 07:53:12;;;;;;;4.42;1.50;;;;;;;19.97;46.09;99063.93;1652491;84;21561;-60
2022/05/28 07:55:39;;;;;;;4.80;1.85;;;;;;;19.96;45.38;99064.90;1622104;86;21570;-65
2022/05/28 07:58:10;;;;;;;6.50;2.00;;;;;;;20.17;45.98;99077.63;1682238;84;21497;-59
2022/05/28 08:00:39;;;;;;;5.42;2.35;;;;;;;20.19;45.78;99076.13;1652112;84;21533;-59
2022/05/28 08:03:07;;;;;;;9.30;2.10;;;;;;;20.10;45.47;99078.30;1682458;83;21506;-59
2022/05/28 08:05:36;;;;;;;4.78;2.22;;;;;;;20.10;45.31;99073.83;1652290;84;21057;-58
2022/05/28 08:08:04;;;;;;;4.92;1.82;;;;;;;20.11;46.98;99070.16;1623761;87;21563;-60
2022/05/28 08:10:31;;;;;;;;;;;;;;;20.21;45.72;99080.83;1651063;85;20993;-59
2022/05/28 08:13:09;;;;;;;5.05;2.10;;;;;;;20.21;44.76;99074.16;1651460;85;21803;-59
2022/05/28 08:15:37;;;;;;;5.08;1.90;;;;;;;20.37;44.55;99070.94;1623222;86;21482;-59
2022/05/28 08:18:07;;;;;;;3.05;1.72;;;;;;;20.29;44.16;99068.14;1682543;83;21536;-60
2022/05/28 08:23:20;;;;;;;4.08;2.00;;;;;;;20.52;43.94;99074.84;1682334;83;21465;-65
2022/05/28 08:25:48;;;;;;;3.70;1.65;;;;;;;20.59;42.72;99079.13;1651887;85;21808;-61
2022/05/28 08:28:16;;;;;;;4.47;1.90;;;;;;;20.60;43.21;99068.81;1652913;84;21608;-60
2022/05/28 08:30:43;;;;;;;4.67;1.67;;;;;;;20.66;43.00;99080.25;1624330;86;21618;-60
2022/05/28 08:33:13;;;;;;;3.62;1.75;;;;;;;20.67;42.14;99067.76;1624207;86;28678;-60
2022/05/28 08:35:42;;;;;;;5.17;1.80;;;;;;;20.76;41.56;99081.09;1653613;84;21538;-60
2022/05/28 08:38:15;;;;;;;4.62;1.60;;;;;;;20.82;41.47;99071.65;1673933;84;21739;-62
2022/05/28 08:41:08;;;;;;;1.70;1.60;;;;;;;21.00;41.71;99064.56;1679143;83;21640;-64
2022/05/28 08:43:37;;;;;;;5.05;1.95;;;;;;;20.85;42.27;99071.84;1651773;84;21502;-59
2022/05/28 08:46:05;;;;;;;3.05;1.92;;;;;;;20.76;42.86;99073.08;1621607;86;21452;-60
2022/05/28 08:48:52;;;;;;;5.45;1.72;;;;;;;20.91;42.48;99068.11;1633068;84;21521;-57
2022/05/28 08:51:52;;;;;;;4.50;1.90;;;;;;;20.91;41.58;99069.95;1682058;83;21927;-59
2022/05/28 08:54:37;;;;;;;2.58;1.70;;;;;;;21.05;41.96;99069.45;1675773;83;21539;-59
2022/05/28 08:57:11;;;;;;;3.05;1.55;;;;;;;21.22;42.91;99079.03;1685621;83;21537;-60
2022/05/28 08:59:56;;;;;;;3.15;1.80;;;;;;;21.23;41.24;99066.00;1677153;83;21442;-63
2022/05/28 09:02:34;;;;;;;2.47;1.37;;;;;;;21.11;41.03;99056.83;1679532;84;21053;-60
2022/05/28 09:05:02;;;;;;;7.20;1.30;;;;;;;20.82;40.49;99067.64;1682616;83;22004;-62
2022/05/28 09:07:31;;;;;;;3.80;1.65;;;;;;;21.06;40.63;99064.47;1675759;84;21096;-62
2022/05/28 09:09:58;;;;;;;2.58;1.52;;;;;;;21.28;41.15;99067.23;1680931;83;21735;-62
2022/05/28 09:12:31;;;;;;;4.75;2.17;;;;;;;21.42;41.02;99067.73;1682928;83;21583;-62
2022/05/28 09:15:00;;;;;;;2.12;1.50;;;;;;;21.44;39.92;99065.78;1682955;84;21554;-62
2022/05/28 09:17:37;;;;;;;4.40;1.22;;;;;;;21.46;39.01;99075.86;1683692;83;21947;-62
2022/05/28 09:20:08;;;;;;;1.60;1.50;;;;;;;21.36;38.89;99065.16;1682053;83;21499;-62
2022/05/28 09:22:35;;;;;;;2.25;1.60;;;;;;;21.38;39.05;99060.53;1682366;84;21449;-62
2022/05/28 09:25:03;;;;;;;6.12;1.50;;;;;;;21.60;38.86;99063.30;1682725;83;21600;-62
2022/05/28 09:27:58;;;;;;;2.87;1.30;;;;;;;21.60;39.12;99061.95;1675489;84;21532;-62
2022/05/28 09:30:58;;;;;;;3.42;1.20;;;;;;;21.53;37.78;99072.44;1683597;83;21624;-62
2022/05/28 09:33:58;;;;;;;4.03;1.42;;;;;;;21.53;38.31;99060.88;1683558;83;21620;-62
2022/05/28 09:36:50;;;;;;;2.33;1.60;;;;;;;21.66;38.74;99060.05;1680387;84;21103;-61
2022/05/28 09:39:43;;;;;;;2.83;1.27;;;;;;;21.69;38.61;99065.07;1678592;83;21558;-62
2022/05/28 09:42:47;;;;;;;5.78;1.47;;;;;;;21.68;37.86;99059.39;1675640;83;21593;-63
2022/05/28 09:45:34;;;;;;;1.92;1.20;;;;;;;21.87;37.90;99062.42;1686216;83;21800;-63
2022/05/28 09:48:01;;;;;;;3.65;1.10;;;;;;;21.91;37.05;99050.92;1683002;84;21454;-61
2022/05/28 09:50:35;;;;;;;4.10;1.32;;;;;;;22.13;38.58;99060.30;1683841;83;20997;-63
2022/05/28 09:55:55;;;;;;;2.85;1.30;;;;;;;22.01;36.06;99059.70;1652586;84;21482;-60
2022/05/28 09:58:23;;;;;;;3.27;1.35;;;;;;;21.91;36.19;99055.77;1672965;84;21862;-60
2022/05/28 10:00:51;;;;;;;1.62;1.02;;;;;;;21.82;36.88;99055.84;1676231;84;21451;-60
2022/05/28 10:06:14;;;;;;;3.00;1.80;;;;;;;21.68;36.91;99050.50;1653417;84;21609;-61
2022/05/28 10:08:41;;;;;;;4.60;1.55;;;;;;;21.91;37.00;99050.92;1646669;85;21503;-61
2022/05/28 10:11:14;;;;;;;2.15;1.00;;;;;;;22.11;37.10;99061.82;1653285;84;21558;-63
2022/05/28 10:13:49;;;;;;;4.72;1.42;;;;;;;22.27;36.63;99045.58;1653073;85;21482;-63
2022/05/28 10:16:24;;;;;;;6.55;1.55;;;;;;;22.29;37.03;99047.09;1641815;86;21604;-62
2022/05/28 10:18:57;;;;;;;3.33;1.27;;;;;;;22.34;37.21;99039.44;1618501;86;21030;-63
2022/05/28 10:21:34;;;;;;;1.82;1.40;;;;;;;22.40;37.41;99039.83;1672709;83;21655;-60
2022/05/28 10:25:50;;;;;;;7.70;1.40;;;;;;;21.62;39.01;99041.25;1786923;78;22875;-59
2022/05/28 10:28:48;;;;;;;3.05;1.70;;;;;;;22.61;36.52;99036.78;1764579;79;20997;-64
2022/05/28 10:31:30;;;;;;;1.90;1.20;;;;;;;22.50;36.80;99030.67;1765738;80;21818;-68
2022/05/28 10:33:58;;;;;;;4.80;1.65;;;;;;;22.27;37.05;99029.01;1761488;80;21526;-68
2022/05/28 10:36:29;;;;;;;3.80;1.45;;;;;;;22.16;36.37;99043.44;1766232;79;21546;-67
2022/05/28 10:39:11;;;;;;;4.20;1.37;;;;;;;21.98;36.51;99038.59;1763173;79;21490;-63
2022/05/28 10:41:38;;;;;;;1.85;1.12;;;;;;;22.21;37.05;99024.72;1748376;80;21502;-68
2022/05/28 10:44:06;;;;;;;4.53;1.12;;;;;;;22.18;36.47;99026.39;1762683;80;22035;-65
2022/05/28 10:47:00;;;;;;;2.33;1.50;;;;;;;22.33;37.35;99015.49;1755350;80;26628;-64
2022/05/28 10:49:41;;;;;;;2.98;1.12;;;;;;;22.62;36.30;99011.66;1751099;80;21447;-66
2022/05/28 10:52:36;;;;;;;2.37;1.27;;;;;;;22.83;35.24;99008.11;1761119;80;21554;-65
2022/05/28 10:55:10;;;;;;;3.20;1.20;;;;;;;23.19;35.62;99001.73;1746693;80;21494;-66
2022/05/28 10:58:01;;;;;;;4.20;1.30;;;;;;;23.41;33.08;99001.13;1765342;79;21787;-63
2022/05/28 11:00:39;;;;;;;4.75;1.05;;;;;;;23.31;32.66;99007.16;1756342;79;21398;-65
2022/05/28 11:03:33;;;;;;;1.82;0.95;;;;;;;23.49;32.03;99003.86;1717331;81;21408;-66
2022/05/28 11:06:29;;;;;;;2.10;1.17;;;;;;;23.19;30.68;99012.45;1702204;81;21546;-66
2022/05/28 11:09:17;;;;;;;11.78;7.30;;;;;;;23.23;31.20;99011.99;1705851;81;21561;-65
2022/05/28 11:12:15;;;;;;;17.07;15.32;;;;;;;23.23;32.67;98994.56;1702502;82;22231;-65
2022/05/28 11:15:09;;;;;;;6.08;1.98;;;;;;;23.35;31.96;98994.26;1705219;83;21577;-65
2022/05/28 11:18:17;;;;;;;174.02;90.75;;;;;;;23.22;32.37;98988.84;1695123;83;21459;-64
2022/05/28 11:21:17;;;;;;;731.15;320.35;;;;;;;23.55;31.78;98978.22;1709157;83;21621;-63
2022/05/28 11:24:11;;;;;;;76.85;39.25;;;;;;;23.82;30.52;98991.02;1697485;83;21514;-63
2022/05/28 11:26:50;;;;;;;18.90;10.23;;;;;;;23.71;31.79;98990.32;1703968;83;22151;-63
2022/05/28 11:29:48;;;;;;;11.45;6.50;;;;;;;23.61;30.53;98986.94;1707186;83;21613;-63
2022/05/28 11:32:23;;;;;;;223.80;157.03;;;;;;;23.32;31.03;98998.12;1705125;83;21513;-62
2022/05/28 11:35:08;;;;;;;1934.25;658.38;;;;;;;22.99;31.83;99001.97;1704980;83;21582;-60
2022/05/28 11:37:41;;;;;;;1732.53;998.40;;;;;;;22.77;31.85;98999.34;1649540;83;21558;-59
2022/05/28 11:40:26;;;;;;;275.98;231.30;;;;;;;22.43;32.73;99000.15;1693854;83;22025;-59
2022/05/28 11:43:03;;;;;;;56.33;50.40;;;;;;;22.22;33.00;99013.03;1703834;83;21546;-58
2022/05/28 11:45:57;;;;;;;13.88;11.50;;;;;;;22.21;32.98;99009.52;1700703;83;21625;-58
2022/05/28 11:51:40;;;;;;;6.78;4.03;;;;;;;22.06;33.00;99018.60;1696201;83;21487;-60
2022/05/28 11:54:17;;;;;;;4.28;2.62;;;;;;;22.21;34.45;99012.20;1693868;82;22117;-60
2022/05/28 11:56:49;;;;;;;6.50;4.50;;;;;;;22.39;33.98;99015.36;1701545;83;21064;-59
2022/05/28 11:59:20;;;;;;;4.53;3.77;;;;;;;22.64;32.51;99001.63;1699413;83;21070;-60
2022/05/28 12:02:08;;;;;;;2.30;2.02;;;;;;;22.75;32.08;99006.70;1695458;82;21591;-60
2022/05/28 12:04:39;;;;;;;5.53;2.55;;;;;;;23.10;31.13;99000.88;1711179;82;21526;-59
2022/05/28 12:07:31;;;;;;;3.60;2.65;;;;;;;23.22;31.51;99000.08;1699204;83;21904;-59
2022/05/28 12:09:59;;;;;;;5.08;3.75;;;;;;;23.25;31.72;99003.79;1684074;83;21557;-62
2022/05/28 12:12:35;;;;;;;4.67;2.27;;;;;;;23.44;31.15;98991.94;1697185;83;21593;-62